Time;durP1;ratioP1;P1;durP2;ratioP2;P2;SDS_P1;SDS_P2;PMS_P1;PMS_P2;Temp;Humidity;BMP_temperature;BMP_pressure;BME280_temperature;BME280_humidity;BME280_pressure;Samples;Min_cycle;Max_cycle;Signal;HPM_P1;HPM_P2
2021/05/03 00:02:06;;;;;;;7.53;5.38;;;7.00;99.90;;;;;;5076246;28;20481;-72
2021/05/03 00:04:32;;;;;;;9.43;5.65;;;7.00;99.90;;;;;;5054345;28;20033;-71
2021/05/03 00:06:58;;;;;;;9.13;5.88;;;7.00;99.90;;;;;;5082430;28;20089;-71
2021/05/03 00:09:24;;;;;;;9.35;6.63;;;7.00;99.90;;;;;;5083809;28;20107;-72
2021/05/03 00:11:49;;;;;;;9.52;5.70;;;6.90;99.90;;;;;;5076545;28;20056;-71
2021/05/03 00:14:15;;;;;;;9.63;6.40;;;6.90;99.90;;;;;;5055772;28;20380;-71
2021/05/03 00:16:40;;;;;;;9.30;6.20;;;7.00;99.90;;;;;;5078460;28;20048;-72
2021/05/03 00:19:06;;;;;;;7.43;6.40;;;7.00;99.90;;;;;;5085056;28;20090;-70
2021/05/03 00:21:32;;;;;;;7.70;5.95;;;6.80;99.90;;;;;;5083994;28;20095;-71
2021/05/03 00:23:58;;;;;;;9.30;5.93;;;6.80;99.90;;;;;;5075189;28;20044;-71
2021/05/03 00:26:23;;;;;;;8.88;5.68;;;6.80;99.90;;;;;;5072966;28;20109;-71
2021/05/03 00:28:49;;;;;;;9.50;6.28;;;6.70;99.90;;;;;;5071090;28;20100;-71
2021/05/03 00:31:15;;;;;;;10.00;6.00;;;6.70;99.90;;;;;;5074644;28;20031;-71
2021/05/03 00:33:40;;;;;;;13.93;7.00;;;6.60;99.90;;;;;;5071452;28;20020;-70
2021/05/03 00:36:06;;;;;;;10.50;6.50;;;6.50;99.90;;;;;;5078303;28;20068;-71
2021/05/03 00:38:32;;;;;;;8.10;6.38;;;6.40;99.90;;;;;;5082927;28;20480;-71
2021/05/03 00:40:59;;;;;;;8.05;6.88;;;6.50;99.90;;;;;;5080707;28;20025;-71
2021/05/03 00:43:25;;;;;;;12.25;7.57;;;6.50;99.90;;;;;;5063017;28;20388;-71
2021/05/03 00:45:51;;;;;;;11.20;6.88;;;6.40;99.90;;;;;;5069517;28;20021;-73
2021/05/03 00:48:18;;;;;;;9.77;6.65;;;6.40;99.90;;;;;;5064417;28;20025;-70
2021/05/03 00:50:46;;;;;;;9.60;6.75;;;6.40;99.90;;;;;;5068493;28;20366;-70
2021/05/03 00:53:12;;;;;;;9.85;7.03;;;6.40;99.90;;;;;;5074197;28;20388;-71
2021/05/03 00:55:38;;;;;;;9.98;6.80;;;6.40;99.90;;;;;;5076564;28;20032;-71
2021/05/03 00:58:04;;;;;;;10.82;6.38;;;6.40;99.90;;;;;;5072482;28;20024;-70
2021/05/03 01:00:30;;;;;;;8.65;6.13;;;6.30;99.90;;;;;;5065604;28;20028;-70
2021/05/03 01:02:57;;;;;;;11.30;6.88;;;6.40;99.90;;;;;;5081091;28;20049;-70
2021/05/03 01:05:23;;;;;;;10.30;6.18;;;6.40;99.90;;;;;;5082445;28;20032;-70
2021/05/03 01:07:48;;;;;;;10.18;6.45;;;6.30;99.90;;;;;;5057053;28;20485;-71
2021/05/03 01:10:15;;;;;;;13.70;6.47;;;6.40;99.90;;;;;;5075475;28;20032;-71
2021/05/03 01:12:41;;;;;;;9.82;6.72;;;6.40;99.90;;;;;;5086541;28;20492;-70
2021/05/03 01:15:09;;;;;;;11.13;6.72;;;6.30;99.90;;;;;;5087242;28;20025;-70
2021/05/03 01:17:40;;;;;;;10.90;6.72;;;6.30;99.90;;;;;;5083774;28;20016;-71
2021/05/03 01:20:14;;;;;;;11.02;7.68;;;6.30;99.90;;;;;;5079678;28;20541;-71
2021/05/03 01:22:41;;;;;;;14.48;7.82;;;6.30;99.90;;;;;;5073673;28;20046;-71
2021/05/03 01:25:08;;;;;;;12.00;8.05;;;6.30;99.90;;;;;;5088131;28;20473;-70
2021/05/03 01:27:35;;;;;;;12.13;7.45;;;6.20;99.90;;;;;;5084368;28;20062;-70
2021/05/03 01:30:10;;;;;;;13.02;7.32;;;6.20;99.90;;;;;;5078371;28;20070;-71
2021/05/03 01:32:36;;;;;;;12.35;8.00;;;6.10;99.90;;;;;;5074056;28;20469;-70
2021/05/03 01:35:03;;;;;;;11.40;7.28;;;6.20;99.90;;;;;;5074318;28;20020;-70
2021/05/03 01:37:29;;;;;;;13.25;8.10;;;6.10;99.90;;;;;;5073689;28;20025;-70
2021/05/03 01:39:55;;;;;;;11.90;7.18;;;6.10;99.90;;;;;;5075514;28;20085;-70
2021/05/03 01:42:22;;;;;;;16.52;8.13;;;6.00;99.90;;;;;;5074667;28;20039;-70
2021/05/03 01:44:55;;;;;;;12.50;6.80;;;6.10;99.90;;;;;;5075039;28;20093;-72
2021/05/03 01:47:20;;;;;;;10.55;7.63;;;6.10;99.90;;;;;;5075201;28;20016;-71
2021/05/03 01:49:46;;;;;;;10.10;7.10;;;6.10;99.90;;;;;;5074965;28;20081;-72
2021/05/03 01:52:12;;;;;;;10.40;7.15;;;6.10;99.90;;;;;;5074668;28;20017;-71
2021/05/03 01:54:38;;;;;;;9.02;6.72;;;6.00;99.90;;;;;;5074371;28;20036;-71
2021/05/03 01:57:04;;;;;;;11.02;7.43;;;6.00;99.90;;;;;;5074907;28;20036;-72
2021/05/03 01:59:33;;;;;;;10.45;7.35;;;6.00;99.90;;;;;;5074700;28;20031;-71
2021/05/03 02:01:59;;;;;;;11.80;7.25;;;5.90;99.90;;;;;;5064381;28;20028;-71
2021/05/03 02:04:25;;;;;;;9.05;7.22;;;5.90;99.90;;;;;;5067047;28;20040;-71
2021/05/03 02:06:51;;;;;;;11.75;7.95;;;5.90;99.90;;;;;;5067467;28;20082;-71
2021/05/03 02:09:16;;;;;;;9.52;6.97;;;5.90;99.90;;;;;;5073586;28;20021;-71
2021/05/03 02:11:42;;;;;;;13.13;8.07;;;5.80;99.90;;;;;;5074686;28;20052;-71
2021/05/03 02:14:09;;;;;;;12.63;7.18;;;5.90;99.90;;;;;;5074241;28;20028;-71
2021/05/03 02:16:35;;;;;;;14.90;7.88;;;5.80;99.90;;;;;;5074831;28;20012;-71
2021/05/03 02:19:01;;;;;;;10.77;7.18;;;5.80;99.90;;;;;;5056082;28;20016;-71
2021/05/03 02:21:26;;;;;;;9.93;7.55;;;5.80;99.90;;;;;;5074466;28;20470;-71
2021/05/03 02:23:53;;;;;;;11.90;7.45;;;5.70;99.90;;;;;;5074328;28;20033;-71
2021/05/03 02:26:19;;;;;;;11.20;7.55;;;5.80;99.90;;;;;;5074478;28;20025;-72
2021/05/03 02:28:44;;;;;;;10.68;7.75;;;5.70;99.90;;;;;;5074609;28;20033;-71
2021/05/03 02:31:10;;;;;;;10.90;7.97;;;5.70;99.90;;;;;;5074041;28;20066;-72
2021/05/03 02:33:36;;;;;;;9.63;7.25;;;5.60;99.90;;;;;;5074137;28;20043;-71
2021/05/03 02:36:02;;;;;;;13.00;8.13;;;5.60;99.90;;;;;;5072086;28;20107;-73
2021/05/03 02:38:30;;;;;;;12.68;6.80;;;5.60;99.90;;;;;;5055390;28;20544;-71
2021/05/03 02:40:56;;;;;;;11.73;7.63;;;5.50;99.90;;;;;;5073951;28;20028;-71
2021/05/03 02:43:22;;;;;;;10.27;7.55;;;5.60;99.90;;;;;;5073928;28;20355;-71
2021/05/03 02:45:47;;;;;;;14.88;7.63;;;5.60;99.90;;;;;;5074334;28;20024;-72
2021/05/03 02:48:13;;;;;;;12.38;7.72;;;5.60;99.90;;;;;;5073778;28;20024;-71
2021/05/03 02:50:39;;;;;;;10.98;8.75;;;5.60;99.90;;;;;;5073925;28;20021;-71
2021/05/03 02:53:05;;;;;;;13.27;8.93;;;5.60;99.90;;;;;;5073898;28;20028;-71
2021/05/03 02:55:30;;;;;;;15.27;8.43;;;5.60;99.90;;;;;;5073777;28;20021;-71
2021/05/03 02:57:57;;;;;;;12.00;8.38;;;5.70;99.90;;;;;;5073885;28;20052;-72
2021/05/03 03:00:33;;;;;;;16.25;8.77;;;5.60;99.90;;;;;;5073390;28;20021;-71
2021/05/03 03:03:00;;;;;;;9.90;8.05;;;5.70;99.90;;;;;;5073474;28;20028;-71
2021/05/03 03:05:26;;;;;;;15.95;8.80;;;5.70;99.90;;;;;;5072568;28;20048;-71
2021/05/03 03:07:52;;;;;;;12.05;7.82;;;5.70;99.90;;;;;;5073217;28;20064;-71
2021/05/03 03:10:19;;;;;;;15.27;8.55;;;5.60;99.90;;;;;;5073681;28;20024;-71
2021/05/03 03:12:45;;;;;;;12.95;9.05;;;5.70;99.90;;;;;;5073652;28;20021;-71
2021/05/03 03:15:12;;;;;;;13.93;8.90;;;5.70;99.90;;;;;;5073203;28;20021;-72
2021/05/03 03:17:38;;;;;;;13.70;8.80;;;5.70;99.90;;;;;;5073078;28;20051;-71
2021/05/03 03:20:05;;;;;;;12.90;8.73;;;5.60;99.90;;;;;;5072917;28;20052;-72
2021/05/03 03:22:32;;;;;;;12.73;8.57;;;5.50;99.90;;;;;;5073048;28;20081;-72
2021/05/03 03:24:58;;;;;;;10.95;8.27;;;5.50;99.90;;;;;;5072298;28;20036;-71
2021/05/03 03:27:23;;;;;;;12.30;7.80;;;5.60;99.90;;;;;;5073252;28;20504;-71
2021/05/03 03:29:49;;;;;;;12.77;6.97;;;5.60;99.90;;;;;;5072737;28;20024;-71
2021/05/03 03:32:15;;;;;;;12.30;8.65;;;5.60;99.90;;;;;;5071771;28;20052;-71
2021/05/03 03:34:40;;;;;;;12.15;7.90;;;5.60;99.90;;;;;;5057481;28;20036;-71
2021/05/03 03:37:06;;;;;;;10.35;7.78;;;5.60;99.90;;;;;;5071536;28;20048;-71
2021/05/03 03:39:31;;;;;;;15.70;8.60;;;5.70;99.90;;;;;;5072057;28;20051;-71
2021/05/03 03:41:57;;;;;;;15.77;8.18;;;5.70;99.90;;;;;;5073235;28;20040;-71
2021/05/03 03:44:23;;;;;;;12.80;7.80;;;5.70;99.90;;;;;;5072856;28;20039;-71
2021/05/03 03:46:50;;;;;;;14.60;7.95;;;5.70;99.90;;;;;;5072585;28;20485;-71
2021/05/03 03:49:16;;;;;;;15.75;8.50;;;5.70;99.90;;;;;;5072468;28;20046;-72
2021/05/03 03:51:42;;;;;;;12.18;8.82;;;5.70;99.90;;;;;;5073292;28;20421;-71
2021/05/03 03:54:08;;;;;;;13.50;8.60;;;5.70;99.90;;;;;;5072993;28;20108;-71
2021/05/03 03:56:33;;;;;;;12.43;7.78;;;5.70;99.90;;;;;;5063632;28;20417;-71
2021/05/03 03:58:59;;;;;;;14.00;7.85;;;5.60;99.90;;;;;;5071562;28;20033;-71
2021/05/03 04:01:26;;;;;;;14.02;8.57;;;5.60;99.90;;;;;;5072583;28;20021;-70
2021/05/03 04:03:59;;;;;;;12.18;8.07;;;5.50;99.90;;;;;;5072353;28;20037;-71
2021/05/03 04:12:08;;;;;;;12.75;8.40;;;5.60;99.90;;;;;;5072393;28;20049;-71
2021/05/03 04:25:41;;;;;;;13.55;7.68;;;5.50;99.90;;;;;;5071317;28;20064;-71
2021/05/03 04:28:08;;;;;;;12.80;8.80;;;5.40;99.90;;;;;;5072784;28;20486;-71
2021/05/03 04:30:35;;;;;;;11.65;8.43;;;5.20;99.90;;;;;;5072206;28;20063;-70
2021/05/03 04:33:01;;;;;;;13.77;8.50;;;5.20;99.90;;;;;;5072782;28;20028;-71
2021/05/03 04:35:27;;;;;;;12.13;9.25;;;5.10;99.90;;;;;;5067063;28;20021;-71
2021/05/03 04:37:53;;;;;;;12.07;8.70;;;5.10;99.90;;;;;;5063457;28;20028;-71
2021/05/03 04:40:19;;;;;;;16.45;9.20;;;5.20;99.90;;;;;;5072194;28;20514;-71
2021/05/03 04:42:44;;;;;;;14.15;8.88;;;5.20;99.90;;;;;;5074403;28;20421;-70
2021/05/03 04:45:14;;;;;;;15.07;9.00;;;5.30;99.90;;;;;;5076208;28;20397;-71
2021/05/03 04:47:40;;;;;;;10.43;7.38;;;5.40;99.90;;;;;;5076437;28;20020;-71
2021/05/03 04:50:08;;;;;;;15.05;7.85;;;5.40;99.90;;;;;;5076166;28;20032;-71
2021/05/03 04:52:35;;;;;;;10.50;7.57;;;5.40;99.90;;;;;;5076085;28;20047;-71
2021/05/03 04:55:00;;;;;;;12.63;7.82;;;5.50;99.90;;;;;;5075810;28;20027;-71
2021/05/03 04:57:26;;;;;;;10.80;8.05;;;5.50;99.90;;;;;;5062212;28;20020;-70
2021/05/03 04:59:52;;;;;;;15.02;8.32;;;5.50;99.90;;;;;;5075777;28;20048;-71
2021/05/03 05:02:18;;;;;;;13.77;7.90;;;5.60;99.90;;;;;;5072051;28;20041;-71
2021/05/03 05:04:43;;;;;;;11.02;7.40;;;5.60;99.90;;;;;;5063884;28;20068;-71
2021/05/03 05:07:09;;;;;;;11.45;7.75;;;5.70;99.90;;;;;;5075425;28;20028;-71
2021/05/03 05:09:35;;;;;;;15.32;8.13;;;5.70;99.90;;;;;;5075967;28;20024;-70
2021/05/03 05:12:01;;;;;;;10.32;7.47;;;5.80;99.90;;;;;;5063455;28;20029;-71
2021/05/03 05:14:26;;;;;;;11.20;7.80;;;5.80;99.90;;;;;;5071839;28;20024;-71
2021/05/03 05:16:52;;;;;;;14.63;7.70;;;5.80;99.90;;;;;;5067279;28;20020;-70
2021/05/03 05:19:18;;;;;;;11.05;7.90;;;5.90;99.90;;;;;;5075056;28;20050;-71
2021/05/03 05:21:44;;;;;;;12.25;7.28;;;5.90;99.90;;;;;;5069639;28;20025;-71
2021/05/03 05:24:10;;;;;;;9.10;6.57;;;5.90;99.90;;;;;;5075599;28;20032;-71
2021/05/03 05:26:35;;;;;;;14.48;8.38;;;6.00;99.90;;;;;;5074962;28;20020;-70
2021/05/03 05:29:01;;;;;;;13.52;7.88;;;6.00;99.90;;;;;;5075558;28;20029;-71
2021/05/03 05:31:27;;;;;;;10.07;7.93;;;6.10;99.90;;;;;;5075238;28;20028;-70
2021/05/03 05:33:52;;;;;;;8.95;7.13;;;6.20;99.90;;;;;;5057536;28;20142;-72
2021/05/03 05:36:18;;;;;;;14.30;8.32;;;6.30;99.90;;;;;;5073755;28;20032;-71
2021/05/03 05:38:44;;;;;;;11.82;7.80;;;6.40;99.90;;;;;;5061237;28;20052;-71
2021/05/03 05:41:13;;;;;;;9.00;6.70;;;6.50;99.90;;;;;;5075404;28;20060;-71
2021/05/03 05:43:40;;;;;;;13.88;8.50;;;6.50;99.90;;;;;;5074916;28;20051;-70
2021/05/03 05:46:06;;;;;;;12.20;9.20;;;6.60;99.90;;;;;;5075346;28;20074;-71
2021/05/03 05:48:32;;;;;;;9.27;7.25;;;6.60;99.90;;;;;;5075143;28;20052;-71
2021/05/03 05:50:58;;;;;;;13.43;8.55;;;6.70;99.90;;;;;;5074870;28;20074;-71
2021/05/03 05:53:23;;;;;;;11.73;7.97;;;6.70;99.90;;;;;;5073972;28;20515;-71
2021/05/03 05:55:49;;;;;;;12.18;7.82;;;6.80;99.90;;;;;;5074566;28;20021;-71
2021/05/03 05:58:14;;;;;;;13.68;8.00;;;6.70;99.90;;;;;;5074415;28;20029;-70
2021/05/03 06:00:40;;;;;;;11.15;7.50;;;6.80;99.90;;;;;;5074804;28;20031;-71
2021/05/03 06:03:06;;;;;;;12.40;7.90;;;6.90;99.90;;;;;;5073057;28;20104;-70
2021/05/03 06:05:32;;;;;;;14.73;8.68;;;6.90;99.90;;;;;;5074664;28;20032;-71
2021/05/03 06:07:58;;;;;;;10.50;7.82;;;7.00;99.90;;;;;;5072678;28;20032;-71
2021/05/03 06:10:24;;;;;;;11.50;8.23;;;7.00;99.90;;;;;;5074824;28;20112;-70
2021/05/03 06:12:50;;;;;;;13.57;9.60;;;7.10;99.90;;;;;;5074232;28;20048;-71
2021/05/03 06:15:15;;;;;;;11.98;8.63;;;7.10;99.90;;;;;;5074140;28;20416;-70
2021/05/03 06:17:41;;;;;;;10.65;7.78;;;7.20;99.90;;;;;;5074416;28;20496;-72
2021/05/03 06:20:07;;;;;;;10.68;7.78;;;7.30;99.90;;;;;;5074958;28;20024;-70
2021/05/03 06:22:33;;;;;;;13.73;8.15;;;7.30;99.90;;;;;;5074803;28;20147;-70
2021/05/03 06:25:01;;;;;;;12.18;7.78;;;7.40;99.90;;;;;;5074261;28;20174;-72
2021/05/03 06:27:27;;;;;;;12.52;8.18;;;7.60;99.90;;;;;;5073222;28;20493;-72
2021/05/03 06:29:53;;;;;;;11.25;8.05;;;7.70;99.90;;;;;;5073103;28;20020;-72
2021/05/03 06:32:19;;;;;;;14.05;7.75;;;7.80;99.90;;;;;;5065043;28;20453;-72
2021/05/03 06:34:44;;;;;;;13.13;7.93;;;7.90;99.90;;;;;;5053862;28;20493;-71
2021/05/03 06:37:10;;;;;;;13.52;7.95;;;8.00;99.90;;;;;;5072307;28;20020;-71
2021/05/03 06:39:37;;;;;;;12.23;7.18;;;8.10;99.90;;;;;;5073823;28;20469;-72
2021/05/03 06:42:03;;;;;;;15.27;8.68;;;8.20;99.90;;;;;;5073642;28;20027;-71
2021/05/03 06:44:29;;;;;;;12.48;7.68;;;8.30;99.90;;;;;;5073754;28;20028;-73
2021/05/03 06:46:56;;;;;;;12.00;7.22;;;8.40;99.90;;;;;;5074021;28;20059;-71
2021/05/03 06:49:22;;;;;;;7.93;6.55;;;8.50;99.90;;;;;;5074173;28;20025;-72
2021/05/03 06:51:48;;;;;;;9.68;6.57;;;8.50;99.90;;;;;;5055815;28;20024;-72
2021/05/03 06:54:14;;;;;;;15.38;6.68;;;8.60;99.90;;;;;;5073168;28;20116;-71
2021/05/03 06:56:39;;;;;;;9.85;5.75;;;8.80;99.90;;;;;;5072297;28;20028;-71
2021/05/03 06:59:05;;;;;;;9.25;5.20;;;8.90;99.90;;;;;;5073832;28;20082;-71
2021/05/03 07:01:31;;;;;;;9.18;5.22;;;9.00;99.90;;;;;;5073602;28;20350;-72
2021/05/03 07:03:56;;;;;;;12.05;5.50;;;9.20;99.90;;;;;;5069685;28;20481;-72
2021/05/03 07:06:22;;;;;;;8.65;4.90;;;9.30;99.90;;;;;;5070734;28;20055;-72
2021/05/03 07:08:48;;;;;;;10.02;5.00;;;9.40;99.90;;;;;;5065452;28;20028;-73
2021/05/03 07:11:20;;;;;;;11.25;4.80;;;9.50;99.90;;;;;;5056262;28;20017;-73
2021/05/03 07:13:46;;;;;;;8.23;5.45;;;9.60;99.90;;;;;;5071659;28;20150;-73
2021/05/03 07:16:11;;;;;;;5.75;4.90;;;9.70;99.90;;;;;;5072261;28;20111;-73
2021/05/03 07:18:38;;;;;;;9.10;5.55;;;9.80;99.90;;;;;;5073310;28;20025;-72
2021/05/03 07:21:04;;;;;;;12.00;5.93;;;9.90;99.90;;;;;;5072624;28;20365;-73
2021/05/03 07:23:30;;;;;;;11.82;6.43;;;10.00;99.90;;;;;;5072617;28;20060;-74
2021/05/03 07:25:57;;;;;;;10.30;5.97;;;10.10;99.90;;;;;;5071830;28;20048;-73
2021/05/03 07:28:23;;;;;;;9.48;6.63;;;10.20;99.90;;;;;;5071813;28;20039;-74
2021/05/03 07:30:48;;;;;;;13.00;7.13;;;10.40;99.90;;;;;;5070680;28;20025;-73
2021/05/03 07:33:14;;;;;;;13.10;7.50;;;10.50;99.90;;;;;;5071220;28;20087;-73
2021/05/03 07:35:39;;;;;;;17.35;7.55;;;10.70;99.90;;;;;;5071901;28;20028;-73
2021/05/03 07:38:05;;;;;;;18.27;8.27;;;10.80;99.90;;;;;;5072655;28;20381;-73
2021/05/03 07:40:31;;;;;;;15.85;8.48;;;10.90;99.90;;;;;;5072243;28;20024;-73
2021/05/03 07:42:57;;;;;;;18.15;8.77;;;11.10;99.90;;;;;;5072085;28;20021;-73
2021/05/03 07:45:23;;;;;;;15.32;8.60;;;11.20;99.90;;;;;;5072654;28;20102;-74
2021/05/03 07:47:49;;;;;;;12.38;8.43;;;11.40;99.90;;;;;;5072265;28;20024;-73
2021/05/03 07:50:15;;;;;;;10.70;8.15;;;11.50;99.90;;;;;;5071511;28;20034;-73
2021/05/03 07:52:41;;;;;;;14.82;10.00;;;11.50;99.90;;;;;;5072546;28;20077;-73
2021/05/03 07:55:08;;;;;;;18.35;8.73;;;11.50;99.90;;;;;;5072229;28;20048;-73
2021/05/03 07:57:33;;;;;;;10.75;8.75;;;11.70;99.50;;;;;;5070339;28;20024;-73
2021/05/03 07:59:59;;;;;;;13.57;9.73;;;11.70;99.90;;;;;;5072191;28;20025;-73
2021/05/03 08:02:25;;;;;;;18.13;10.88;;;11.70;99.90;;;;;;5043229;28;20066;-73
2021/05/03 08:04:52;;;;;;;13.70;8.73;;;11.70;99.90;;;;;;5068159;28;20378;-73
2021/05/03 08:07:17;;;;;;;13.05;9.43;;;11.90;99.90;;;;;;5071992;28;20144;-73
2021/05/03 08:09:44;;;;;;;14.73;9.10;;;12.10;99.30;;;;;;5070812;28;20516;-72
2021/05/03 08:12:10;;;;;;;12.40;9.15;;;12.20;98.80;;;;;;5071937;28;20536;-72
2021/05/03 08:14:37;;;;;;;13.75;9.88;;;12.30;98.30;;;;;;5058188;28;20385;-72
2021/05/03 08:17:08;;;;;;;11.30;9.70;;;12.30;99.30;;;;;;5062580;28;20028;-73
2021/05/03 08:19:34;;;;;;;14.82;9.23;;;12.30;98.70;;;;;;5068931;28;20024;-73
2021/05/03 08:22:01;;;;;;;12.43;8.65;;;12.40;98.40;;;;;;5072164;28;20025;-73
2021/05/03 08:24:29;;;;;;;12.63;9.52;;;12.60;98.60;;;;;;5070539;28;20031;-73
2021/05/03 08:26:55;;;;;;;13.15;9.68;;;12.80;99.80;;;;;;5051232;28;20838;-70
2021/05/03 08:29:20;;;;;;;15.15;9.00;;;12.80;98.60;;;;;;5053192;28;20146;-72
2021/05/03 08:31:46;;;;;;;11.45;8.70;;;12.70;97.80;;;;;;5072606;28;20389;-73
2021/05/03 08:34:12;;;;;;;13.82;9.02;;;12.90;97.90;;;;;;5072714;28;20469;-72
2021/05/03 08:36:38;;;;;;;15.43;9.40;;;13.00;97.90;;;;;;5073024;28;20032;-73
2021/05/03 08:39:05;;;;;;;11.07;8.60;;;13.20;96.60;;;;;;5070099;28;20028;-73
2021/05/03 08:41:34;;;;;;;11.90;8.30;;;13.30;97.10;;;;;;5067896;28;20023;-73
2021/05/03 08:44:00;;;;;;;13.30;9.27;;;13.60;96.80;;;;;;5070196;28;20047;-73
2021/05/03 08:46:31;;;;;;;12.90;8.95;;;13.60;95.60;;;;;;5055006;28;20066;-73
2021/05/03 08:51:45;;;;;;;9.55;8.43;;;13.90;95.00;;;;;;5067677;28;20113;-73
2021/05/03 08:54:18;;;;;;;13.82;9.85;;;14.00;95.40;;;;;;5072921;28;20017;-72
2021/05/03 08:56:43;;;;;;;13.32;8.70;;;14.10;95.80;;;;;;5055140;28;20833;-73
2021/05/03 08:59:15;;;;;;;12.35;9.02;;;14.20;94.40;;;;;;5072459;28;20078;-73
2021/05/03 09:01:48;;;;;;;13.13;9.02;;;14.30;94.30;;;;;;5070135;28;20035;-73
2021/05/03 09:04:16;;;;;;;12.52;8.68;;;14.30;94.40;;;;;;5076226;28;20028;-73
2021/05/03 09:07:04;;;;;;;13.85;8.73;;;14.50;94.70;;;;;;5072358;28;20029;-73
2021/05/03 09:09:44;;;;;;;13.77;8.95;;;14.60;93.80;;;;;;5071984;28;20376;-73
2021/05/03 09:12:15;;;;;;;14.63;9.77;;;14.70;92.40;;;;;;5072837;28;20579;-73
2021/05/03 09:15:07;;;;;;;17.10;9.50;;;14.80;92.70;;;;;;5074164;28;20488;-73
2021/05/03 09:17:42;;;;;;;10.37;7.90;;;14.70;92.40;;;;;;5093180;28;20392;-73
2021/05/03 09:20:10;;;;;;;12.10;8.82;;;14.90;92.70;;;;;;5073393;28;20809;-73
2021/05/03 09:25:22;;;;;;;12.88;8.38;;;15.20;92.30;;;;;;5081625;28;20520;-73
2021/05/03 09:27:48;;;;;;;10.48;7.60;;;15.40;91.20;;;;;;5080470;28;20032;-73
2021/05/03 09:30:30;;;;;;;9.63;8.30;;;15.40;92.30;;;;;;5083205;28;20024;-73
2021/05/03 09:33:16;;;;;;;10.25;8.43;;;15.60;91.90;;;;;;5084632;28;20031;-73
2021/05/03 09:35:43;;;;;;;9.52;8.27;;;15.70;90.40;;;;;;5081917;28;20031;-73
2021/05/03 09:38:36;;;;;;;15.45;9.40;;;15.70;90.10;;;;;;5083427;28;20032;-73
2021/05/03 09:41:21;;;;;;;12.80;9.50;;;15.70;91.10;;;;;;5073644;28;20021;-73
2021/05/03 09:43:52;;;;;;;11.27;8.32;;;15.80;90.30;;;;;;5083708;28;20040;-73
2021/05/03 09:46:28;;;;;;;12.90;9.30;;;16.00;90.30;;;;;;5085736;28;20024;-73
2021/05/03 09:48:55;;;;;;;10.23;8.32;;;15.80;90.70;;;;;;5083878;28;20024;-73
2021/05/03 09:51:34;;;;;;;10.80;9.10;;;16.00;91.10;;;;;;5081513;28;20028;-72
2021/05/03 09:54:29;;;;;;;8.82;7.93;;;16.00;90.00;;;;;;5075260;28;20071;-73
2021/05/03 09:57:06;;;;;;;10.68;8.00;;;16.10;90.00;;;;;;5076737;28;20434;-73
2021/05/03 09:59:44;;;;;;;13.02;9.68;;;16.30;89.60;;;;;;5079433;28;20040;-73
2021/05/03 10:02:24;;;;;;;12.68;8.98;;;16.10;88.90;;;;;;5077852;28;20013;-73
2021/05/03 10:05:16;;;;;;;14.50;9.27;;;16.20;88.30;;;;;;5082137;28;20115;-73
2021/05/03 10:07:52;;;;;;;14.07;9.10;;;16.20;89.00;;;;;;5075187;28;20469;-73
2021/05/03 10:10:21;;;;;;;10.80;8.13;;;16.00;90.60;;;;;;5081351;28;20020;-73
2021/05/03 10:12:47;;;;;;;13.43;9.30;;;15.90;90.50;;;;;;5075594;28;20031;-73
2021/05/03 10:15:16;;;;;;;10.57;8.93;;;15.90;89.60;;;;;;5075875;28;20024;-73
2021/05/03 10:17:43;;;;;;;12.32;8.98;;;16.00;89.10;;;;;;5084894;28;20023;-73
2021/05/03 10:20:11;;;;;;;12.80;8.50;;;16.20;88.10;;;;;;5077033;28;20027;-73
2021/05/03 10:22:37;;;;;;;10.00;8.43;;;16.50;89.70;;;;;;5067307;28;20032;-73
2021/05/03 10:25:07;;;;;;;11.77;8.68;;;16.70;87.40;;;;;;5076852;28;20425;-73
2021/05/03 10:27:38;;;;;;;12.50;9.23;;;17.10;85.10;;;;;;5087878;28;20020;-73
2021/05/03 10:30:17;;;;;;;11.68;9.10;;;17.10;87.70;;;;;;5081221;28;20116;-73
2021/05/03 10:32:56;;;;;;;15.05;8.45;;;17.00;85.60;;;;;;5083498;28;20024;-73
2021/05/03 10:35:28;;;;;;;11.60;9.10;;;16.90;88.10;;;;;;5083627;28;20039;-73
2021/05/03 10:37:55;;;;;;;16.90;9.80;;;16.70;87.70;;;;;;5074839;28;20024;-73
2021/05/03 10:40:20;;;;;;;14.48;9.95;;;16.60;87.80;;;;;;5083268;28;20020;-74
2021/05/03 10:43:01;;;;;;;14.05;8.82;;;16.50;84.30;;;;;;5083302;28;20031;-74
2021/05/03 10:48:39;;;;;;;13.55;8.63;;;16.30;86.20;;;;;;5084770;28;20027;-74
2021/05/03 10:51:10;;;;;;;14.20;8.77;;;16.30;85.40;;;;;;5072495;28;20024;-73
2021/05/03 10:53:40;;;;;;;9.00;7.05;;;16.50;83.10;;;;;;5066274;28;20082;-73
2021/05/03 10:56:08;;;;;;;11.35;8.93;;;16.80;87.50;;;;;;5080831;28;20040;-74
2021/05/03 10:58:53;;;;;;;9.27;8.10;;;16.70;83.10;;;;;;5067770;28;20027;-73
2021/05/03 11:01:19;;;;;;;11.82;7.60;;;16.70;81.70;;;;;;5076435;28;20159;-73
2021/05/03 11:03:54;;;;;;;12.18;7.53;;;16.80;81.80;;;;;;5081551;28;20038;-73
2021/05/03 11:06:38;;;;;;;9.25;7.93;;;16.90;84.30;;;;;;5081069;28;20047;-73
2021/05/03 11:09:34;;;;;;;10.45;8.82;;;17.10;85.50;;;;;;5078333;28;20097;-73
2021/05/03 11:12:05;;;;;;;8.60;7.28;;;16.80;81.80;;;;;;5086325;28;20089;-73
2021/05/03 11:14:36;;;;;;;9.90;7.38;;;16.60;82.30;;;;;;5078412;28;20052;-74
2021/05/03 11:17:16;;;;;;;12.75;7.07;;;16.70;82.30;;;;;;5079692;28;20078;-74
2021/05/03 11:22:21;;;;;;;7.63;6.47;;;16.80;79.40;;;;;;5086089;28;20377;-74
2021/05/03 11:25:01;;;;;;;8.73;6.75;;;16.70;78.50;;;;;;5078397;28;20044;-74
2021/05/03 11:33:09;;;;;;;7.60;5.32;;;16.60;78.10;;;;;;5070917;28;20149;-74
2021/05/03 11:35:45;;;;;;;7.53;5.20;;;16.80;77.80;;;;;;5084228;28;20028;-74
2021/05/03 11:46:31;;;;;;;7.32;4.82;;;17.10;78.40;;;;;;5085746;28;20093;-73
2021/05/03 11:48:58;;;;;;;6.72;5.40;;;16.90;75.90;;;;;;5053688;28;20568;-73
2021/05/03 11:51:25;;;;;;;8.02;4.63;;;17.00;76.00;;;;;;5073041;28;20032;-73
2021/05/03 11:53:51;;;;;;;7.65;4.28;;;16.90;76.70;;;;;;5071834;28;20104;-73
2021/05/03 11:56:21;;;;;;;5.60;4.97;;;17.20;76.30;;;;;;5062424;28;20107;-73
2021/05/03 11:58:49;;;;;;;8.25;4.97;;;17.10;75.80;;;;;;5070738;28;20052;-73
2021/05/03 12:01:16;;;;;;;4.93;4.50;;;17.30;71.30;;;;;;5078738;28;20228;-73
2021/05/03 12:03:47;;;;;;;7.07;4.82;;;17.20;72.70;;;;;;5070462;28;20103;-73
2021/05/03 12:06:32;;;;;;;7.22;4.53;;;17.10;76.50;;;;;;5063291;28;20377;-74
2021/05/03 12:09:05;;;;;;;5.85;4.30;;;17.20;73.30;;;;;;5067846;28;20378;-73
2021/05/03 12:11:32;;;;;;;8.95;4.47;;;17.20;70.50;;;;;;5049398;28;20024;-73
2021/05/03 12:13:57;;;;;;;4.97;4.07;;;17.30;71.60;;;;;;5069105;28;20039;-73
2021/05/03 12:16:38;;;;;;;9.27;4.47;;;17.20;73.90;;;;;;5068591;28;20024;-73
2021/05/03 12:19:20;;;;;;;8.32;4.70;;;17.10;75.00;;;;;;5054752;28;20024;-73
2021/05/03 12:21:59;;;;;;;8.25;4.30;;;17.20;73.30;;;;;;5068349;28;20073;-73
2021/05/03 12:24:24;;;;;;;8.23;4.43;;;17.30;72.30;;;;;;5064882;28;20159;-73
2021/05/03 12:26:55;;;;;;;5.15;4.32;;;17.30;73.70;;;;;;5061290;28;20849;-73
2021/05/03 12:29:21;;;;;;;5.55;4.90;;;17.50;72.80;;;;;;5069853;28;20090;-73
2021/05/03 12:31:48;;;;;;;5.50;4.90;;;17.50;71.30;;;;;;5070444;28;20052;-73
2021/05/03 12:34:20;;;;;;;10.38;4.57;;;17.50;74.60;;;;;;5069372;28;20040;-73
2021/05/03 12:37:23;;;;;;;8.30;4.60;;;17.60;70.30;;;;;;5068363;28;20021;-74
2021/05/03 12:40:07;;;;;;;7.72;5.45;;;17.30;70.10;;;;;;5069130;28;20037;-73
2021/05/03 12:42:48;;;;;;;8.63;5.38;;;17.30;73.40;;;;;;5069931;28;20028;-73
2021/05/03 12:45:31;;;;;;;6.68;5.07;;;17.40;70.20;;;;;;5067773;28;20039;-73
2021/05/03 12:53:48;;;;;;;6.07;4.35;;;17.50;72.60;;;;;;5068516;28;20067;-73
2021/05/03 12:59:28;;;;;;;5.38;4.53;;;17.50;72.50;;;;;;5048232;28;20029;-74
2021/05/03 13:02:18;;;;;;;5.60;4.90;;;17.60;72.00;;;;;;5067631;28;20561;-73
2021/05/03 13:04:54;;;;;;;4.88;4.40;;;17.90;69.50;;;;;;5068833;28;20127;-73
2021/05/03 13:28:58;;;;;;;6.40;4.15;;;17.80;70.70;;;;;;5073117;28;20106;-74
2021/05/03 13:31:24;;;;;;;4.65;4.10;;;17.80;69.20;;;;;;5065270;28;20044;-74
2021/05/03 13:33:50;;;;;;;7.13;4.45;;;17.80;70.30;;;;;;5073454;28;20060;-73
2021/05/03 13:36:15;;;;;;;4.55;4.18;;;17.70;67.40;;;;;;5087623;28;20032;-74
2021/05/03 13:38:41;;;;;;;8.30;4.72;;;17.80;65.80;;;;;;5074473;28;20095;-73
2021/05/03 13:41:06;;;;;;;4.28;3.70;;;17.80;69.80;;;;;;5083469;28;20029;-74
2021/05/03 13:43:32;;;;;;;10.15;4.53;;;17.90;68.70;;;;;;5068060;28;20108;-74
2021/05/03 13:45:58;;;;;;;5.57;4.10;;;17.90;67.80;;;;;;5065623;28;20108;-73
2021/05/03 13:48:23;;;;;;;4.75;4.22;;;17.90;67.60;;;;;;5070813;28;20021;-73
2021/05/03 13:50:49;;;;;;;6.80;4.28;;;18.00;69.90;;;;;;5072046;28;20028;-74
2021/05/03 13:53:15;;;;;;;6.57;4.50;;;17.80;67.70;;;;;;5062967;28;20017;-74
2021/05/03 13:55:41;;;;;;;5.60;3.75;;;17.70;67.30;;;;;;5072184;28;20115;-73
2021/05/03 13:58:06;;;;;;;4.57;3.75;;;17.80;66.50;;;;;;5074464;28;20020;-74
2021/05/03 14:00:32;;;;;;;6.55;4.03;;;17.90;67.60;;;;;;5071440;28;20020;-74
2021/05/03 14:02:58;;;;;;;4.53;3.65;;;17.70;69.50;;;;;;5076426;28;20581;-73
2021/05/03 14:05:23;;;;;;;6.18;4.13;;;17.90;66.20;;;;;;5065004;28;20125;-75